createdAt,value
2022-09-17T00:01:45.703Z,75.06
2022-09-17T00:04:14.654Z,75.39
2022-09-17T00:06:43.453Z,75.42
2022-09-17T00:09:12.335Z,75.61
2022-09-17T00:11:43.190Z,76.53
2022-09-17T00:14:16.319Z,77.07
2022-09-17T00:16:49.158Z,77.71
2022-09-17T00:19:20.044Z,75.97
2022-09-17T00:21:49.198Z,75.64
2022-09-17T00:24:18.992Z,77.21
2022-09-17T00:26:47.919Z,76.41
2022-09-17T00:29:18.198Z,76.99
2022-09-17T00:31:46.968Z,77.56
2022-09-17T00:34:15.682Z,77.04
2022-09-17T00:36:44.601Z,77.43
2022-09-17T00:39:16.665Z,76.87
2022-09-17T00:41:45.715Z,76.69
2022-09-17T00:44:41.318Z,75.14
2022-09-17T00:47:15.447Z,76.29
2022-09-17T00:49:46.653Z,75.17
2022-09-17T00:52:17.753Z,75.09
2022-09-17T00:54:51.146Z,75.25
2022-09-17T00:57:20.385Z,76.27
2022-09-17T00:59:50.571Z,75.72
2022-09-17T01:02:20.299Z,74.68
2022-09-17T01:04:49.505Z,74.81
2022-09-17T01:07:38.654Z,74.74
2022-09-17T01:10:14.175Z,75.14
2022-09-17T01:12:54.855Z,74.09
2022-09-17T01:15:29.943Z,74.57
2022-09-17T01:18:13.066Z,75.73
2022-09-17T01:21:05.945Z,75.23
2022-09-17T01:23:53.823Z,75.47
2022-09-17T01:26:51.453Z,73.83
2022-09-17T01:29:34.131Z,73.71
2022-09-17T01:32:09.279Z,74.34
2022-09-17T01:34:45.314Z,74.82
2022-09-17T01:37:16.144Z,75.52
2022-09-17T01:39:50.874Z,74.40
2022-09-17T01:42:28.087Z,75.29
2022-09-17T01:45:01.626Z,73.35
2022-09-17T01:47:36.830Z,72.75
2022-09-17T01:50:08.791Z,75.10
2022-09-17T01:52:39.783Z,74.25
2022-09-17T01:55:11.376Z,75.43
2022-09-17T01:57:43.953Z,74.94
2022-09-17T02:00:14.730Z,74.01
2022-09-17T02:02:49.136Z,72.44
2022-09-17T02:05:20.792Z,72.91
2022-09-17T02:07:53.501Z,73.56
2022-09-17T02:10:24.206Z,72.44
2022-09-17T02:12:57.197Z,72.39
2022-09-17T02:15:28.984Z,71.54
2022-09-17T02:18:04.033Z,73.33
2022-09-17T02:20:39.398Z,73.24
2022-09-17T02:23:11.898Z,71.63
2022-09-17T02:25:45.164Z,72.89
2022-09-17T02:28:17.537Z,72.09
2022-09-17T02:30:46.658Z,72.13
2022-09-17T02:33:16.682Z,71.34
2022-09-17T02:35:47.398Z,72.65
2022-09-17T02:38:23.202Z,72.51
2022-09-17T02:40:55.962Z,72.45
2022-09-17T02:43:29.316Z,71.73
2022-09-17T02:46:11.903Z,71.97
2022-09-17T02:49:11.962Z,72.40
2022-09-17T02:51:47.241Z,71.85
2022-09-17T02:54:21.758Z,72.09
2022-09-17T02:56:56.600Z,70.61
2022-09-17T02:59:28.145Z,71.84
2022-09-17T03:01:57.942Z,71.28
2022-09-17T03:04:29.053Z,71.76
2022-09-17T03:06:59.561Z,72.17
2022-09-17T03:09:28.514Z,72.25
2022-09-17T03:11:57.341Z,71.72
2022-09-17T03:14:25.979Z,73.26
2022-09-17T03:16:54.895Z,71.35
2022-09-17T03:19:23.538Z,72.09
2022-09-17T03:21:53.508Z,71.83
2022-09-17T03:24:22.413Z,71.06
2022-09-17T03:26:51.105Z,70.05
2022-09-17T03:29:19.922Z,71.13
2022-09-17T03:31:48.899Z,70.09
2022-09-17T03:34:17.851Z,70.96
2022-09-17T03:36:46.452Z,70.80
2022-09-17T03:39:16.710Z,70.34
2022-09-17T03:41:45.330Z,70.02
2022-09-17T03:44:15.394Z,70.17
2022-09-17T03:46:44.363Z,69.79
2022-09-17T03:49:13.026Z,69.74
2022-09-17T03:51:41.646Z,68.56
2022-09-17T03:54:10.758Z,68.62
2022-09-17T03:56:40.735Z,68.89
2022-09-17T03:59:09.385Z,69.28
2022-09-17T04:01:38.332Z,68.81
2022-09-17T04:04:07.908Z,68.56
2022-09-17T04:06:36.741Z,69.08
2022-09-17T04:09:05.715Z,68.93
2022-09-17T04:11:34.592Z,69.95
2022-09-17T04:14:04.689Z,69.92
2022-09-17T04:16:33.364Z,69.09
2022-09-17T04:19:02.268Z,69.98
2022-09-17T04:21:31.013Z,70.71
2022-09-17T04:24:00.008Z,70.03
2022-09-17T04:26:28.904Z,68.55
2022-09-17T04:28:57.548Z,68.27
2022-09-17T04:31:27.529Z,69.51
2022-09-17T04:33:56.444Z,69.93
2022-09-17T04:36:28.385Z,70.49
2022-09-17T04:38:57.409Z,71.44
2022-09-17T04:41:26.044Z,71.05
2022-09-17T04:43:54.642Z,70.30
2022-09-17T04:46:23.604Z,71.34
2022-09-17T04:48:53.678Z,70.99
2022-09-17T04:51:22.337Z,69.57
2022-09-17T04:53:51.265Z,70.63
2022-09-17T04:56:20.497Z,71.41
2022-09-17T04:58:49.655Z,71.19
2022-09-17T05:01:18.882Z,69.68
2022-09-17T05:03:47.579Z,70.90
2022-09-17T05:06:17.552Z,69.96
2022-09-17T05:08:46.483Z,70.55
2022-09-17T05:11:15.138Z,70.82
2022-09-17T05:13:44.094Z,70.65
2022-09-17T05:16:13.114Z,70.15
2022-09-17T05:18:41.858Z,69.95
2022-09-17T05:21:10.474Z,70.31
2022-09-17T05:23:40.712Z,70.68
2022-09-17T05:26:09.350Z,69.89
2022-09-17T05:28:37.950Z,70.67
2022-09-17T05:31:07.131Z,70.21
2022-09-17T05:33:35.870Z,70.77
2022-09-17T05:36:05.052Z,71.30
2022-09-17T05:38:33.966Z,71.02
2022-09-17T05:41:07.131Z,71.58
2022-09-17T05:43:36.156Z,72.45
2022-09-17T05:46:05.912Z,71.52
2022-09-17T05:48:35.455Z,72.32
2022-09-17T05:51:04.594Z,71.70
2022-09-17T05:53:33.205Z,72.10
2022-09-17T05:56:02.078Z,70.72
2022-09-17T05:58:33.151Z,69.22
2022-09-17T06:01:02.173Z,70.32
2022-09-17T06:03:31.059Z,70.71
2022-09-17T06:06:03.003Z,68.46
2022-09-17T06:08:31.962Z,69.21
2022-09-17T06:11:05.139Z,69.54
2022-09-17T06:13:35.812Z,67.29
2022-09-17T06:16:05.322Z,67.28
2022-09-17T06:18:34.279Z,66.41
2022-09-17T06:21:04.262Z,66.97
2022-09-17T06:23:35.312Z,66.71
2022-09-17T06:26:05.300Z,67.39
2022-09-17T06:28:40.601Z,66.59
2022-09-17T06:31:12.039Z,67.16
2022-09-17T06:33:40.818Z,65.93
2022-09-17T06:36:14.196Z,65.65
2022-09-17T06:38:44.041Z,65.77
2022-09-17T06:41:14.600Z,66.04
2022-09-17T06:43:45.103Z,66.51
2022-09-17T06:46:13.772Z,66.40
2022-09-17T06:48:42.532Z,66.67
2022-09-17T06:51:12.424Z,67.05
2022-09-17T06:53:41.373Z,67.54
2022-09-17T06:56:10.681Z,67.10
2022-09-17T06:58:43.347Z,66.78
2022-09-17T07:01:14.053Z,66.68
2022-09-17T07:03:44.055Z,65.93
2022-09-17T07:06:12.917Z,65.55
2022-09-17T07:08:42.071Z,66.18
2022-09-17T07:11:11.097Z,65.86
2022-09-17T07:13:39.806Z,66.59
2022-09-17T07:16:08.882Z,66.00
2022-09-17T07:18:40.186Z,66.36
2022-09-17T07:21:10.393Z,65.37
2022-09-17T07:23:39.306Z,65.26
2022-09-17T07:26:10.064Z,65.86
2022-09-17T07:28:40.272Z,63.90
2022-09-17T07:31:15.212Z,63.76
2022-09-17T07:33:46.330Z,65.31
2022-09-17T07:36:18.068Z,65.67
2022-09-17T07:38:47.255Z,63.70
2022-09-17T07:41:17.155Z,63.97
2022-09-17T07:43:46.102Z,63.00
2022-09-17T07:46:17.185Z,63.55
2022-09-17T07:48:49.650Z,62.58
2022-09-17T07:51:19.640Z,63.34
2022-09-17T07:53:50.490Z,64.02
2022-09-17T07:56:19.408Z,62.73
2022-09-17T07:58:48.063Z,62.97
2022-09-17T08:01:17.771Z,64.17
2022-09-17T08:03:51.729Z,63.57
2022-09-17T08:06:22.226Z,63.31
2022-09-17T08:08:51.212Z,62.80
2022-09-17T08:11:44.526Z,62.23
2022-09-17T08:14:12.725Z,63.11
2022-09-17T08:16:41.611Z,62.73
2022-09-17T08:19:11.846Z,62.80
2022-09-17T08:21:40.482Z,62.65
2022-09-17T08:24:09.234Z,63.42
2022-09-17T08:26:38.873Z,62.38
2022-09-17T08:29:07.696Z,63.17
2022-09-17T08:31:36.478Z,63.91
2022-09-17T08:34:09.318Z,64.12
2022-09-17T08:36:39.472Z,63.54
2022-09-17T08:39:08.500Z,63.35
2022-09-17T08:41:48.032Z,62.99
2022-09-17T08:44:24.558Z,63.24
2022-09-17T08:46:55.901Z,64.07
2022-09-17T08:49:32.864Z,64.60
2022-09-17T08:52:24.960Z,61.88
2022-09-17T08:55:02.086Z,62.84
2022-09-17T08:57:36.122Z,63.22
2022-09-17T09:00:10.477Z,63.08
2022-09-17T09:02:57.102Z,63.89
2022-09-17T09:05:30.326Z,63.66
2022-09-17T09:08:04.638Z,62.40
2022-09-17T09:10:44.401Z,62.38
2022-09-17T09:13:15.428Z,62.72
2022-09-17T09:15:49.005Z,62.57
2022-09-17T09:18:21.204Z,61.79
2022-09-17T09:20:53.553Z,62.09
2022-09-17T09:23:30.666Z,61.74
2022-09-17T09:26:05.608Z,62.14
2022-09-17T09:28:49.888Z,62.51
2022-09-17T09:31:43.217Z,62.10
2022-09-17T09:34:16.069Z,61.03
2022-09-17T09:36:45.420Z,61.75
2022-09-17T09:39:20.332Z,62.16
2022-09-17T09:41:51.575Z,61.53
2022-09-17T09:44:20.216Z,61.03
2022-09-17T09:47:09.951Z,61.58
2022-09-17T09:49:53.568Z,61.07
2022-09-17T09:52:33.788Z,61.11
2022-09-17T09:55:26.883Z,62.61
2022-09-17T09:58:00.424Z,61.61
2022-09-17T10:00:31.568Z,60.45
2022-09-17T10:03:08.083Z,61.31
2022-09-17T10:05:36.905Z,62.53
2022-09-17T10:08:13.668Z,60.81
2022-09-17T10:10:57.167Z,59.62
2022-09-17T10:13:27.029Z,58.95
2022-09-17T10:15:55.769Z,58.59
2022-09-17T10:18:25.865Z,57.11
2022-09-17T10:20:59.736Z,57.05
2022-09-17T10:23:30.399Z,57.06
2022-09-17T10:26:00.987Z,55.78
2022-09-17T10:28:35.996Z,55.93
2022-09-17T10:31:09.139Z,56.29
2022-09-17T10:33:41.441Z,55.73
2022-09-17T10:36:14.777Z,55.85
2022-09-17T10:38:44.711Z,54.10
2022-09-17T10:41:21.815Z,53.36
2022-09-17T10:43:51.036Z,53.30
2022-09-17T10:46:26.631Z,53.72
2022-09-17T10:49:09.688Z,53.92
2022-09-17T10:51:39.075Z,53.99
2022-09-17T10:54:26.584Z,53.03
2022-09-17T10:56:59.045Z,53.54
2022-09-17T10:59:56.964Z,52.54
2022-09-17T11:02:52.601Z,53.36
2022-09-17T11:05:37.234Z,54.15
2022-09-17T11:08:10.218Z,53.78
2022-09-17T11:10:43.969Z,53.75
2022-09-17T11:13:22.850Z,54.40
2022-09-17T11:16:03.891Z,54.44
2022-09-17T11:18:34.185Z,53.88
2022-09-17T11:21:27.840Z,54.11
2022-09-17T11:24:09.817Z,55.14
2022-09-17T11:26:41.557Z,54.76
2022-09-17T11:29:23.861Z,55.31
2022-09-17T11:32:02.066Z,55.15
2022-09-17T11:34:32.989Z,54.79
2022-09-17T11:37:06.842Z,54.87
2022-09-17T11:39:41.801Z,55.01
2022-09-17T11:42:13.648Z,54.49
2022-09-17T11:44:48.435Z,54.90
2022-09-17T11:47:20.520Z,56.30
2022-09-17T11:49:52.643Z,55.35
2022-09-17T11:52:23.584Z,56.27
2022-09-17T11:54:53.794Z,55.83
2022-09-17T11:57:24.606Z,55.79
2022-09-17T11:59:55.493Z,54.67
2022-09-17T12:02:28.301Z,54.68
2022-09-17T12:05:00.897Z,54.09
2022-09-17T12:07:38.093Z,53.03
2022-09-17T12:10:20.600Z,54.25
2022-09-17T12:12:54.258Z,54.10
2022-09-17T12:15:26.772Z,54.48
2022-09-17T12:18:27.682Z,54.04
2022-09-17T12:20:52.240Z,54.01
2022-09-17T12:23:26.697Z,53.70
2022-09-17T12:26:01.884Z,53.76
2022-09-17T12:28:36.545Z,53.69
2022-09-17T12:31:11.584Z,53.90
2022-09-17T12:33:42.994Z,53.94
2022-09-17T12:36:24.732Z,53.26
2022-09-17T12:39:11.190Z,52.94
2022-09-17T12:41:47.393Z,52.98
2022-09-17T12:44:27.685Z,53.08
2022-09-17T12:47:16.531Z,52.61
2022-09-17T12:49:58.745Z,52.97
2022-09-17T12:52:36.458Z,52.38
2022-09-17T12:55:22.187Z,52.58
2022-09-17T12:57:57.826Z,52.71
2022-09-17T13:00:26.556Z,51.54
2022-09-17T13:03:03.275Z,52.14
2022-09-17T13:05:56.629Z,53.00
2022-09-17T13:08:56.553Z,53.07
2022-09-17T13:11:41.420Z,52.28
2022-09-17T13:14:17.620Z,52.33
2022-09-17T13:16:49.848Z,53.09
2022-09-17T13:19:29.173Z,53.37
2022-09-17T13:22:01.767Z,53.46
2022-09-17T13:24:31.639Z,54.69
2022-09-17T13:27:02.090Z,54.46
2022-09-17T13:29:59.704Z,55.30
2022-09-17T13:32:47.159Z,54.39
2022-09-17T13:35:52.045Z,55.00
2022-09-17T13:38:23.842Z,55.79
2022-09-17T13:40:54.131Z,56.08
2022-09-17T13:43:27.164Z,54.91
2022-09-17T13:46:17.901Z,55.68
2022-09-17T13:48:50.435Z,55.63
2022-09-17T13:51:46.381Z,56.03
2022-09-17T13:54:15.311Z,56.49
2022-09-17T13:56:46.688Z,56.94
2022-09-17T13:59:18.735Z,56.24
2022-09-17T14:02:00.667Z,56.83
2022-09-17T14:04:47.972Z,56.87
2022-09-17T14:07:37.231Z,56.96
2022-09-17T14:10:37.594Z,56.28
2022-09-17T14:13:26.608Z,56.25
2022-09-17T14:16:00.764Z,55.91
2022-09-17T14:18:38.878Z,55.29
2022-09-17T14:21:14.741Z,55.97
2022-09-17T14:23:46.723Z,56.01
2022-09-17T14:26:21.068Z,55.59
2022-09-17T14:28:55.874Z,55.01
2022-09-17T14:31:31.119Z,54.24
2022-09-17T14:34:00.013Z,54.69
2022-09-17T14:36:29.917Z,54.94
2022-09-17T14:38:59.902Z,54.95
2022-09-17T14:41:34.069Z,54.81
2022-09-17T14:44:05.053Z,55.73
2022-09-17T14:46:36.586Z,55.29
2022-09-17T14:49:16.204Z,55.33
2022-09-17T14:51:45.162Z,55.27
2022-09-17T14:54:18.998Z,54.67
2022-09-17T14:56:59.333Z,54.66
2022-09-17T14:59:42.947Z,54.62
2022-09-17T15:02:37.503Z,55.26
2022-09-17T15:05:35.676Z,54.85
2022-09-17T15:08:12.346Z,54.18
2022-09-17T15:10:48.960Z,54.62
2022-09-17T15:13:20.315Z,54.39
2022-09-17T15:15:54.719Z,54.62
2022-09-17T15:18:35.214Z,55.27
2022-09-17T15:21:05.978Z,54.84
2022-09-17T15:23:35.993Z,54.75
2022-09-17T15:26:06.694Z,54.47
2022-09-17T15:28:36.985Z,53.21
2022-09-17T15:31:07.315Z,54.56
2022-09-17T15:33:36.379Z,54.24
2022-09-17T15:36:15.436Z,53.96
2022-09-17T15:38:45.042Z,53.92
2022-09-17T15:41:29.870Z,53.85
2022-09-17T15:44:28.984Z,54.53
2022-09-17T15:47:37.343Z,55.76
2022-09-17T15:50:14.631Z,56.26
2022-09-17T15:52:43.327Z,56.95
2022-09-17T15:55:29.424Z,56.16
2022-09-17T15:58:00.271Z,57.00
2022-09-17T16:00:29.674Z,56.37
2022-09-17T16:02:58.759Z,56.27
2022-09-17T16:05:55.724Z,56.27
2022-09-17T16:08:35.485Z,55.26
2022-09-17T16:11:04.149Z,54.30
2022-09-17T16:13:34.371Z,54.59
2022-09-17T16:16:03.588Z,54.96
2022-09-17T16:18:32.296Z,55.15
2022-09-17T16:21:01.266Z,56.17
2022-09-17T16:23:29.909Z,55.51
2022-09-17T16:25:58.932Z,55.67
2022-09-17T16:28:27.997Z,55.93
2022-09-17T16:30:58.401Z,56.21
2022-09-17T16:33:28.283Z,55.04
2022-09-17T16:35:58.133Z,55.74
2022-09-17T16:38:29.362Z,54.89
2022-09-17T16:40:58.268Z,55.60
2022-09-17T16:43:26.886Z,56.17
2022-09-17T16:46:07.440Z,56.58
2022-09-17T16:48:36.673Z,57.03
2022-09-17T16:51:08.463Z,57.76
2022-09-17T16:53:37.511Z,57.50
2022-09-17T16:56:08.297Z,58.42
2022-09-17T16:58:37.797Z,58.20
2022-09-17T17:01:09.558Z,58.45
2022-09-17T17:03:38.528Z,58.23
2022-09-17T17:06:07.663Z,58.40
2022-09-17T17:08:36.406Z,58.39
2022-09-17T17:11:05.438Z,59.57
2022-09-17T17:13:34.060Z,59.30
2022-09-17T17:16:06.912Z,59.73
2022-09-17T17:18:37.456Z,60.88
2022-09-17T17:21:07.285Z,59.13
2022-09-17T17:23:36.739Z,59.19
2022-09-17T17:26:05.579Z,59.59
2022-09-17T17:28:35.098Z,61.16
2022-09-17T17:31:04.556Z,61.34
2022-09-17T17:33:33.410Z,61.84
2022-09-17T17:36:08.311Z,60.79
2022-09-17T17:38:37.821Z,60.83
2022-09-17T17:41:07.912Z,61.92
2022-09-17T17:43:37.191Z,63.32
2022-09-17T17:46:07.703Z,60.44
2022-09-17T17:48:36.425Z,61.37
2022-09-17T17:51:08.164Z,60.64
2022-09-17T17:53:37.116Z,61.29
2022-09-17T17:56:07.578Z,62.14
2022-09-17T17:58:36.952Z,60.93
2022-09-17T18:01:11.365Z,60.83
2022-09-17T18:03:40.256Z,61.06
2022-09-17T18:06:10.437Z,60.00
2022-09-17T18:08:39.603Z,59.63
2022-09-17T18:11:09.859Z,60.52
2022-09-17T18:13:39.559Z,60.35
2022-09-17T18:16:09.530Z,59.85
2022-09-17T18:18:44.458Z,59.39
2022-09-17T18:21:18.853Z,60.22
2022-09-17T18:23:52.624Z,59.86
2022-09-17T18:26:23.844Z,60.39
2022-09-17T18:28:53.487Z,60.39
2022-09-17T18:31:24.691Z,60.20
2022-09-17T18:33:57.770Z,60.40
2022-09-17T18:36:29.383Z,61.17
2022-09-17T18:39:16.789Z,62.27
2022-09-17T18:41:50.921Z,61.21
2022-09-17T18:44:22.038Z,61.15
2022-09-17T18:46:51.539Z,60.53
2022-09-17T18:49:20.019Z,60.76
2022-09-17T18:51:50.012Z,59.72
2022-09-17T18:54:18.720Z,60.52
2022-09-17T18:56:47.179Z,61.27
2022-09-17T18:59:15.512Z,61.18
2022-09-17T19:01:44.207Z,60.11
2022-09-17T19:04:12.658Z,60.27
2022-09-17T19:06:41.772Z,59.77
2022-09-17T19:09:11.896Z,61.21
2022-09-17T19:11:40.293Z,61.22
2022-09-17T19:14:10.008Z,61.32
2022-09-17T19:16:38.678Z,61.51
2022-09-17T19:19:07.098Z,61.30
2022-09-17T19:21:35.422Z,61.16
2022-09-17T19:24:04.322Z,61.42
2022-09-17T19:26:34.002Z,61.03
2022-09-17T19:29:02.382Z,60.78
2022-09-17T19:31:31.083Z,60.94
2022-09-17T19:34:00.036Z,61.16
2022-09-17T19:36:28.451Z,61.90
2022-09-17T19:38:58.612Z,62.78
2022-09-17T19:41:26.961Z,62.35
2022-09-17T19:43:57.260Z,62.61
2022-09-17T19:46:26.974Z,62.25
2022-09-17T19:49:01.638Z,61.15
2022-09-17T19:51:31.973Z,61.34
2022-09-17T19:54:04.339Z,61.05
2022-09-17T19:56:33.974Z,61.25
2022-09-17T19:59:09.127Z,62.58
2022-09-17T20:01:39.263Z,63.58
2022-09-17T20:04:10.299Z,64.34
2022-09-17T20:06:38.629Z,64.62
2022-09-17T20:09:11.033Z,64.14
2022-09-17T20:11:40.121Z,64.86
2022-09-17T20:14:11.849Z,63.63
2022-09-17T20:16:43.560Z,64.70
2022-09-17T20:19:16.123Z,64.80
2022-09-17T20:21:45.035Z,64.94
2022-09-17T20:24:16.998Z,65.47
2022-09-17T20:26:46.194Z,65.47
2022-09-17T20:29:26.221Z,65.79
2022-09-17T20:32:21.395Z,65.41
2022-09-17T20:35:05.669Z,66.88
2022-09-17T20:38:32.855Z,67.03
2022-09-17T20:40:28.079Z,67.86
2022-09-17T20:42:56.771Z,68.06
2022-09-17T20:45:28.729Z,68.07
2022-09-17T20:47:58.670Z,68.93
2022-09-17T20:50:29.292Z,69.40
2022-09-17T20:52:58.153Z,69.13
2022-09-17T20:55:29.276Z,69.10
2022-09-17T20:58:00.534Z,68.69
2022-09-17T21:00:29.667Z,68.39
2022-09-17T21:03:02.729Z,67.67
2022-09-17T21:05:32.133Z,68.94
2022-09-17T21:08:04.768Z,69.78
2022-09-17T21:10:37.119Z,69.62
2022-09-17T21:13:05.745Z,68.76
2022-09-17T21:15:34.425Z,68.62
2022-09-17T21:18:06.653Z,69.61
2022-09-17T21:20:41.828Z,68.28
2022-09-17T21:23:10.153Z,69.47
2022-09-17T21:25:40.910Z,69.19
2022-09-17T21:28:10.388Z,69.57
2022-09-17T21:30:39.627Z,70.25
2022-09-17T21:33:11.495Z,69.17
2022-09-17T21:35:43.801Z,69.41
2022-09-17T21:38:12.283Z,69.91
2022-09-17T21:40:43.931Z,71.46
2022-09-17T21:43:12.477Z,70.99
2022-09-17T21:45:48.715Z,71.67
2022-09-17T21:48:18.360Z,71.65
2022-09-17T21:50:52.611Z,71.43
2022-09-17T21:53:21.043Z,70.96
2022-09-17T21:55:54.043Z,72.12
2022-09-17T21:58:22.504Z,72.93
2022-09-17T22:00:52.835Z,73.83
2022-09-17T22:03:22.809Z,74.75
2022-09-17T22:05:52.613Z,75.44
2022-09-17T22:08:21.203Z,75.38
2022-09-17T22:10:52.323Z,76.52
2022-09-17T22:13:20.928Z,74.88
2022-09-17T22:15:56.455Z,75.09
2022-09-17T22:18:26.445Z,75.70
2022-09-17T22:20:55.732Z,75.53
2022-09-17T22:23:37.921Z,75.35
2022-09-17T22:26:15.969Z,75.88
2022-09-17T22:29:09.929Z,75.18
2022-09-17T22:32:05.310Z,75.04
2022-09-17T22:34:36.949Z,74.73
2022-09-17T22:37:10.412Z,74.85
2022-09-17T22:39:38.977Z,74.58
2022-09-17T22:42:09.811Z,75.02
2022-09-17T22:44:41.048Z,75.90
2022-09-17T22:47:10.269Z,76.12
2022-09-17T22:49:41.475Z,77.12
2022-09-17T22:52:10.637Z,76.10
2022-09-17T22:54:41.074Z,76.02
2022-09-17T22:57:17.684Z,75.59
2022-09-17T22:59:46.012Z,76.61
2022-09-17T23:02:15.537Z,76.88
2022-09-17T23:04:45.307Z,76.01
2022-09-17T23:07:13.838Z,75.45
2022-09-17T23:09:45.588Z,75.25
2022-09-17T23:12:16.827Z,76.11
2022-09-17T23:14:50.701Z,76.04
2022-09-17T23:17:31.099Z,77.39
2022-09-17T23:20:03.478Z,76.39
2022-09-17T23:22:31.823Z,76.98
2022-09-17T23:25:05.370Z,75.48
2022-09-17T23:27:33.704Z,76.45
2022-09-17T23:30:06.063Z,75.95
2022-09-17T23:32:34.438Z,75.60
2022-09-17T23:35:08.992Z,74.52
2022-09-17T23:37:37.473Z,75.62
2022-09-17T23:40:10.618Z,74.46
2022-09-17T23:42:39.029Z,74.58
2022-09-17T23:45:13.985Z,73.33
2022-09-17T23:47:42.268Z,73.60
2022-09-17T23:50:13.470Z,73.83
2022-09-17T23:52:42.484Z,74.05
2022-09-17T23:55:15.713Z,74.59
2022-09-17T23:57:48.558Z,76.07
